PWSweather.com
Personal Weather Stations
Station Observations
PENICUIKWS
PenicuikGB

PenicuikGB

Lat: 55.830932, Lon: -3.224533000000065

Elevation: 166

Station Type: Fine Offset

http://weather.penicuik.org

High Low Average
Temperature 55.9°F13.3°C 33.4°F0.8°C 47.5°F8.6°C
Dew Point 52.5°F11.4°C 31.1°F-0.5°C 42.2°F5.7°C
Winds 5.3 mph 8.5 kmh Calm Calm 2.0 mph SSW3.2 kmh SSW
Wind Gusts 9.8 mph15.8 kmh -- 4.0 mph6.4 kmh
Humidity 96% 54% 83%
Pressure 30.32 in1026.8 mb 29.87 in1011.5 mb -
Precipitation 0.06 in1.5 mm - -
Hour Temp Dew Point Humidity Winds Wind Gusts Pressure Precip Precip Rate Daily Precip Total
12:29 AM 37.0°F2.8°C 33.8°F1.0°C 88% 0.7 mph SW1.1 kmh SW 0.7 mph1.1 kmh 30.25 in1024.4 mb 0.00 in0.0 mm 0.00 in0.0 mm 0.00 in0.0 mm
12:59 AM 36.0°F2.2°C 32.8°F0.4°C 88% Calm Calm -- 30.26 in1024.7 mb 0.00 in0.0 mm 0.00 in0.0 mm 0.00 in0.0 mm
01:29 AM 35.2°F1.8°C 32.3°F0.2°C 89% Calm Calm -- 30.27 in1025.1 mb 0.00 in0.0 mm 0.00 in0.0 mm 0.00 in0.0 mm
01:59 AM 34.7°F1.5°C 31.8°F-0.1°C 89% 0.7 mph SW1.1 kmh SW 0.7 mph1.1 kmh 30.27 in1025.1 mb 0.00 in0.0 mm 0.00 in0.0 mm 0.00 in0.0 mm
02:29 AM 34.2°F1.2°C 31.5°F-0.3°C 90% 0.7 mph S1.1 kmh S 0.7 mph1.1 kmh 30.27 in1025.1 mb 0.00 in0.0 mm 0.00 in0.0 mm 0.00 in0.0 mm
02:59 AM 35.1°F1.7°C 32.4°F0.2°C 90% Calm Calm -- 30.27 in1025.1 mb 0.00 in0.0 mm 0.00 in0.0 mm 0.00 in0.0 mm
03:29 AM 35.1°F1.7°C 32.7°F0.4°C 91% 2.2 mph S3.5 kmh S 2.2 mph3.5 kmh 30.28 in1025.4 mb 0.00 in0.0 mm 0.00 in0.0 mm 0.00 in0.0 mm
03:59 AM 34.2°F1.2°C 31.8°F-0.1°C 91% 0.7 mph SW1.1 kmh SW 0.7 mph1.1 kmh 30.27 in1025.1 mb 0.00 in0.0 mm 0.00 in0.0 mm 0.00 in0.0 mm
04:29 AM 33.4°F0.8°C 31.1°F-0.5°C 91% Calm Calm -- 30.28 in1025.4 mb 0.00 in0.0 mm 0.00 in0.0 mm 0.00 in0.0 mm
04:59 AM 33.4°F0.8°C 31.4°F-0.3°C 92% 0.7 mph SW1.1 kmh SW 0.7 mph1.1 kmh 30.29 in1025.7 mb 0.00 in0.0 mm 0.00 in0.0 mm 0.00 in0.0 mm
05:29 AM 34.5°F1.4°C 32.2°F0.1°C 91% 1.6 mph SW2.6 kmh SW 1.6 mph2.6 kmh 30.29 in1025.7 mb 0.00 in0.0 mm 0.00 in0.0 mm 0.00 in0.0 mm
05:59 AM 35.8°F2.1°C 33.4°F0.8°C 91% 1.6 mph S2.6 kmh S 1.6 mph2.6 kmh 30.29 in1025.7 mb 0.00 in0.0 mm 0.00 in0.0 mm 0.00 in0.0 mm
06:15 AM 36.1°F2.3°C 33.8°F1.0°C 91% 0.4 mph SW0.6 kmh SW 2.0 mph3.2 kmh 30.29 in1025.7 mb 0.00 in0.0 mm 0.00 in0.0 mm 0.00 in0.0 mm
06:30 AM 36.1°F2.3°C 34.0°F1.1°C 92% 0.9 mph SSW1.4 kmh SSW 2.2 mph3.5 kmh 30.30 in1026.1 mb 0.00 in0.0 mm 0.00 in0.0 mm 0.00 in0.0 mm
06:45 AM 36.1°F2.3°C 34.0°F1.1°C 92% 0.2 mph SSE0.3 kmh SSE 1.6 mph2.6 kmh 30.30 in1026.1 mb 0.00 in0.0 mm 0.00 in0.0 mm 0.00 in0.0 mm
07:15 AM 37.0°F2.8°C 34.9°F1.6°C 92% 1.4 mph S2.3 kmh S 3.1 mph5.0 kmh 30.30 in1026.1 mb 0.00 in0.0 mm 0.00 in0.0 mm 0.00 in0.0 mm
07:30 AM 39.9°F4.4°C 38.9°F3.8°C 96% 2.9 mph S4.7 kmh S 4.5 mph7.2 kmh 30.30 in1026.1 mb 0.00 in0.0 mm 0.00 in0.0 mm 0.00 in0.0 mm
07:45 AM 43.0°F6.1°C 41.6°F5.3°C 95% 0.8 mph S1.3 kmh S 1.6 mph2.6 kmh 30.31 in1026.4 mb 0.00 in0.0 mm 0.00 in0.0 mm 0.00 in0.0 mm
08:00 AM 44.2°F6.8°C 42.9°F6.1°C 95% 0.3 mph NNE0.5 kmh NNE 1.6 mph2.6 kmh 30.32 in1026.8 mb 0.00 in0.0 mm 0.00 in0.0 mm 0.00 in0.0 mm
08:15 AM 45.9°F7.7°C 43.7°F6.5°C 92% 0.2 mph S0.3 kmh S 1.6 mph2.6 kmh 30.31 in1026.4 mb 0.00 in0.0 mm 0.00 in0.0 mm 0.00 in0.0 mm
08:30 AM 47.1°F8.4°C 43.8°F6.6°C 88% 0.4 mph SSW0.6 kmh SSW 1.6 mph2.6 kmh 30.31 in1026.4 mb 0.00 in0.0 mm 0.00 in0.0 mm 0.00 in0.0 mm
09:00 AM 49.6°F9.8°C 41.0°F5.0°C 72% 1.7 mph S2.7 kmh S 3.1 mph5.0 kmh 30.30 in1026.1 mb 0.00 in0.0 mm 0.00 in0.0 mm 0.00 in0.0 mm
09:15 AM 50.4°F10.2°C 41.3°F5.2°C 71% 1.2 mph SSW1.9 kmh SSW 2.2 mph3.5 kmh 30.30 in1026.1 mb 0.00 in0.0 mm 0.00 in0.0 mm 0.00 in0.0 mm
09:45 AM 55.8°F13.2°C 39.4°F4.1°C 54% 2.5 mph NE4.0 kmh NE 3.8 mph6.1 kmh 30.30 in1026.1 mb 0.00 in0.0 mm 0.00 in0.0 mm 0.00 in0.0 mm
10:00 AM 54.1°F12.3°C 40.1°F4.5°C 59% 2.6 mph NE4.2 kmh NE 3.8 mph6.1 kmh 30.30 in1026.1 mb 0.00 in0.0 mm 0.00 in0.0 mm 0.00 in0.0 mm
10:15 AM 52.5°F11.4°C 39.5°F4.2°C 61% 1.8 mph SE2.9 kmh SE 3.1 mph5.0 kmh 30.29 in1025.7 mb 0.00 in0.0 mm 0.00 in0.0 mm 0.00 in0.0 mm
10:30 AM 55.2°F12.9°C 41.2°F5.1°C 59% 1.9 mph NNE3.1 kmh NNE 3.8 mph6.1 kmh 30.30 in1026.1 mb 0.00 in0.0 mm 0.00 in0.0 mm 0.00 in0.0 mm
10:45 AM 53.8°F12.1°C 39.8°F4.3°C 59% 1.6 mph ENE2.6 kmh ENE 3.1 mph5.0 kmh 30.29 in1025.7 mb 0.00 in0.0 mm 0.00 in0.0 mm 0.00 in0.0 mm
11:15 AM 52.5°F11.4°C 39.9°F4.4°C 62% 2.0 mph SSW3.2 kmh SSW 3.8 mph6.1 kmh 30.29 in1025.7 mb 0.00 in0.0 mm 0.00 in0.0 mm 0.00 in0.0 mm
11:30 AM 54.1°F12.3°C 40.6°F4.8°C 60% 1.5 mph NE2.4 kmh NE 3.1 mph5.0 kmh 30.28 in1025.4 mb 0.00 in0.0 mm 0.00 in0.0 mm 0.00 in0.0 mm
11:45 AM 54.9°F12.7°C 39.5°F4.2°C 56% 2.3 mph S3.7 kmh S 4.5 mph7.2 kmh 30.27 in1025.1 mb 0.00 in0.0 mm 0.00 in0.0 mm 0.00 in0.0 mm
12:00 PM 55.9°F13.3°C 40.5°F4.7°C 56% 1.6 mph SW2.6 kmh SW 2.2 mph3.5 kmh 30.28 in1025.4 mb 0.00 in0.0 mm 0.00 in0.0 mm 0.00 in0.0 mm
12:15 PM 54.3°F12.4°C 38.5°F3.6°C 55% 2.7 mph ESE4.3 kmh ESE 4.5 mph7.2 kmh 30.27 in1025.1 mb 0.00 in0.0 mm 0.00 in0.0 mm 0.00 in0.0 mm
12:30 PM 54.7°F12.6°C 40.2°F4.6°C 58% 1.6 mph SE2.6 kmh SE 3.1 mph5.0 kmh 30.26 in1024.7 mb 0.00 in0.0 mm 0.00 in0.0 mm 0.00 in0.0 mm
12:45 PM 55.0°F12.8°C 40.1°F4.5°C 57% 3.2 mph SSE5.1 kmh SSE 4.5 mph7.2 kmh 30.26 in1024.7 mb 0.00 in0.0 mm 0.00 in0.0 mm 0.00 in0.0 mm
01:00 PM 55.0°F12.8°C 40.5°F4.7°C 58% 2.0 mph SSE3.2 kmh SSE 3.8 mph6.1 kmh 30.25 in1024.4 mb 0.00 in0.0 mm 0.00 in0.0 mm 0.00 in0.0 mm
01:15 PM 53.8°F12.1°C 39.4°F4.1°C 58% 2.4 mph NW3.9 kmh NW 3.8 mph6.1 kmh 30.23 in1023.7 mb 0.00 in0.0 mm 0.00 in0.0 mm 0.00 in0.0 mm
01:30 PM 52.9°F11.6°C 40.2°F4.6°C 62% 2.3 mph SSE3.7 kmh SSE 6.0 mph9.7 kmh 30.24 in1024.0 mb 0.00 in0.0 mm 0.00 in0.0 mm 0.00 in0.0 mm
01:45 PM 51.4°F10.8°C 40.1°F4.5°C 65% 2.8 mph SSW4.5 kmh SSW 3.8 mph6.1 kmh 30.24 in1024.0 mb 0.00 in0.0 mm 0.00 in0.0 mm 0.00 in0.0 mm
02:00 PM 51.3°F10.7°C 41.8°F5.4°C 70% 1.7 mph SE2.7 kmh SE 3.1 mph5.0 kmh 30.22 in1023.4 mb 0.00 in0.0 mm 0.00 in0.0 mm 0.00 in0.0 mm
02:15 PM 51.3°F10.7°C 42.6°F5.9°C 72% 1.8 mph ESE2.9 kmh ESE 4.5 mph7.2 kmh 30.22 in1023.4 mb 0.00 in0.0 mm 0.00 in0.0 mm 0.00 in0.0 mm
02:30 PM 50.2°F10.1°C 42.9°F6.1°C 76% 1.4 mph SW2.3 kmh SW 2.2 mph3.5 kmh 30.22 in1023.4 mb 0.01 in0.3 mm 0.04 in1.0 mm 0.01 in0.3 mm
02:45 PM 50.0°F10.0°C 43.4°F6.3°C 78% 1.4 mph WSW2.3 kmh WSW 1.6 mph2.6 kmh 30.21 in1023.0 mb 0.01 in0.3 mm 0.00 in0.0 mm 0.01 in0.3 mm
03:00 PM 49.6°F9.8°C 44.1°F6.7°C 81% 1.8 mph W2.9 kmh W 3.1 mph5.0 kmh 30.18 in1022.0 mb 0.02 in0.5 mm 0.01 in0.3 mm 0.02 in0.5 mm
03:15 PM 49.1°F9.5°C 43.8°F6.6°C 82% 1.6 mph SSE2.6 kmh SSE 1.6 mph2.6 kmh 30.18 in1022.0 mb 0.02 in0.5 mm 0.00 in0.0 mm 0.02 in0.5 mm
03:45 PM 48.6°F9.2°C 44.3°F6.8°C 85% 0.8 mph S1.3 kmh S 1.6 mph2.6 kmh 30.16 in1021.3 mb 0.04 in1.0 mm 0.04 in1.0 mm 0.05 in1.3 mm
04:00 PM 48.0°F8.9°C 44.0°F6.7°C 86% 1.4 mph SW2.3 kmh SW 3.8 mph6.1 kmh 30.16 in1021.3 mb 0.02 in0.5 mm 0.00 in0.0 mm 0.05 in1.3 mm
04:01 PM 48.0°F8.9°C 44.0°F6.7°C 86% 1.6 mph SW2.6 kmh SW 3.8 mph6.1 kmh 30.15 in1021.0 mb 0.02 in0.5 mm 0.00 in0.0 mm 0.05 in1.3 mm
04:15 PM 47.7°F8.7°C 44.0°F6.7°C 87% 1.8 mph W2.9 kmh W 2.2 mph3.5 kmh 30.14 in1020.7 mb 0.02 in0.5 mm 0.00 in0.0 mm 0.05 in1.3 mm
04:30 PM 47.5°F8.6°C 43.8°F6.6°C 87% 1.7 mph NNW2.7 kmh NNW 3.1 mph5.0 kmh 30.13 in1020.3 mb 0.02 in0.5 mm 0.00 in0.0 mm 0.06 in1.5 mm
04:45 PM 47.3°F8.5°C 44.2°F6.8°C 89% 2.7 mph NW4.3 kmh NW 3.8 mph6.1 kmh 30.13 in1020.3 mb 0.01 in0.3 mm 0.00 in0.0 mm 0.06 in1.5 mm
05:00 PM 47.3°F8.5°C 44.5°F6.9°C 90% 2.4 mph SW3.9 kmh SW 3.1 mph5.0 kmh 30.12 in1020.0 mb 0.01 in0.3 mm 0.00 in0.0 mm 0.06 in1.5 mm
05:15 PM 47.5°F8.6°C 45.0°F7.2°C 91% 1.9 mph NW3.1 kmh NW 3.8 mph6.1 kmh 30.11 in1019.6 mb 0.01 in0.3 mm 0.00 in0.0 mm 0.06 in1.5 mm
05:30 PM 47.5°F8.6°C 45.0°F7.2°C 91% 2.8 mph SE4.5 kmh SE 4.5 mph7.2 kmh 30.10 in1019.3 mb 0.00 in0.0 mm 0.00 in0.0 mm 0.06 in1.5 mm
05:45 PM 47.5°F8.6°C 45.0°F7.2°C 91% 2.1 mph SW3.4 kmh SW 3.8 mph6.1 kmh 30.09 in1019.0 mb 0.00 in0.0 mm 0.00 in0.0 mm 0.06 in1.5 mm
06:00 PM 47.5°F8.6°C 45.3°F7.4°C 92% 2.8 mph E4.5 kmh E 5.4 mph8.7 kmh 30.07 in1018.3 mb 0.00 in0.0 mm 0.00 in0.0 mm 0.06 in1.5 mm
06:15 PM 47.5°F8.6°C 45.3°F7.4°C 92% 3.6 mph NNW5.8 kmh NNW 7.6 mph12.2 kmh 30.06 in1017.9 mb 0.00 in0.0 mm 0.00 in0.0 mm 0.06 in1.5 mm
06:30 PM 47.5°F8.6°C 45.3°F7.4°C 92% 2.9 mph NE4.7 kmh NE 5.4 mph8.7 kmh 30.06 in1017.9 mb 0.00 in0.0 mm 0.00 in0.0 mm 0.06 in1.5 mm
06:45 PM 47.1°F8.4°C 44.6°F7.0°C 91% 2.5 mph W4.0 kmh W 3.1 mph5.0 kmh 30.05 in1017.6 mb 0.00 in0.0 mm 0.00 in0.0 mm 0.06 in1.5 mm
07:00 PM 47.1°F8.4°C 44.6°F7.0°C 91% 2.5 mph NNW4.0 kmh NNW 4.5 mph7.2 kmh 30.03 in1016.9 mb 0.00 in0.0 mm 0.00 in0.0 mm 0.06 in1.5 mm
07:15 PM 47.5°F8.6°C 45.3°F7.4°C 92% 3.3 mph WNW5.3 kmh WNW 4.5 mph7.2 kmh 30.01 in1016.3 mb 0.00 in0.0 mm 0.00 in0.0 mm 0.06 in1.5 mm
07:30 PM 47.5°F8.6°C 45.3°F7.4°C 92% 3.0 mph NNW4.8 kmh NNW 5.4 mph8.7 kmh 30.00 in1015.9 mb 0.00 in0.0 mm 0.00 in0.0 mm 0.06 in1.5 mm
07:45 PM 47.8°F8.8°C 45.6°F7.6°C 92% 3.5 mph NNW5.6 kmh NNW 5.4 mph8.7 kmh 29.98 in1015.2 mb 0.00 in0.0 mm 0.00 in0.0 mm 0.06 in1.5 mm
08:00 PM 48.2°F9.0°C 45.7°F7.6°C 91% 3.2 mph NNW5.1 kmh NNW 8.3 mph13.4 kmh 29.98 in1015.2 mb 0.00 in0.0 mm 0.00 in0.0 mm 0.06 in1.5 mm
08:15 PM 48.6°F9.2°C 46.1°F7.8°C 91% 2.8 mph N4.5 kmh N 4.5 mph7.2 kmh 29.97 in1014.9 mb 0.00 in0.0 mm 0.00 in0.0 mm 0.06 in1.5 mm
08:30 PM 48.6°F9.2°C 46.1°F7.8°C 91% 3.4 mph WNW5.5 kmh WNW 6.9 mph11.1 kmh 29.94 in1013.9 mb 0.00 in0.0 mm 0.00 in0.0 mm 0.06 in1.5 mm
08:45 PM 48.9°F9.4°C 46.4°F8.0°C 91% 3.4 mph WSW5.5 kmh WSW 6.9 mph11.1 kmh 29.94 in1013.9 mb 0.00 in0.0 mm 0.00 in0.0 mm 0.06 in1.5 mm
09:00 PM 49.6°F9.8°C 47.1°F8.4°C 91% 4.9 mph WSW7.9 kmh WSW 7.6 mph12.2 kmh 29.94 in1013.9 mb 0.00 in0.0 mm 0.00 in0.0 mm 0.06 in1.5 mm
09:15 PM 50.2°F10.1°C 47.4°F8.6°C 90% 3.7 mph WSW6.0 kmh WSW 5.4 mph8.7 kmh 29.91 in1012.9 mb 0.00 in0.0 mm 0.00 in0.0 mm 0.06 in1.5 mm
09:30 PM 50.2°F10.1°C 47.7°F8.7°C 91% 4.5 mph W7.2 kmh W 9.8 mph15.8 kmh 29.91 in1012.9 mb 0.00 in0.0 mm 0.00 in0.0 mm 0.06 in1.5 mm
09:45 PM 51.3°F10.7°C 48.7°F9.3°C 91% 3.4 mph NW5.5 kmh NW 5.4 mph8.7 kmh 29.89 in1012.2 mb 0.00 in0.0 mm 0.00 in0.0 mm 0.06 in1.5 mm
10:00 PM 51.4°F10.8°C 48.9°F9.4°C 91% 3.7 mph NNE6.0 kmh NNE 6.9 mph11.1 kmh 29.89 in1012.2 mb 0.00 in0.0 mm 0.00 in0.0 mm 0.06 in1.5 mm
10:15 PM 52.3°F11.3°C 49.5°F9.7°C 90% 3.8 mph WNW6.1 kmh WNW 8.3 mph13.4 kmh 29.89 in1012.2 mb 0.00 in0.0 mm 0.00 in0.0 mm 0.06 in1.5 mm
10:16 PM 52.3°F11.3°C 49.5°F9.7°C 90% 3.9 mph W6.3 kmh W 8.3 mph13.4 kmh 29.89 in1012.2 mb 0.00 in0.0 mm 0.00 in0.0 mm 0.06 in1.5 mm
10:30 PM 52.7°F11.5°C 49.9°F9.9°C 90% 5.3 mph SW8.5 kmh SW 7.6 mph12.2 kmh 29.89 in1012.2 mb 0.00 in0.0 mm 0.00 in0.0 mm 0.06 in1.5 mm
10:31 PM 52.7°F11.5°C 49.9°F9.9°C 90% 5.2 mph SW8.4 kmh SW 7.6 mph12.2 kmh 29.89 in1012.2 mb 0.00 in0.0 mm 0.00 in0.0 mm 0.06 in1.5 mm
10:44 PM 52.9°F11.6°C 50.0°F10.0°C 90% 3.4 mph W5.5 kmh W 5.4 mph8.7 kmh 29.88 in1011.9 mb 0.00 in0.0 mm 0.00 in0.0 mm 0.06 in1.5 mm
10:45 PM 52.9°F11.6°C 50.0°F10.0°C 90% 3.5 mph W5.6 kmh W 5.4 mph8.7 kmh 29.88 in1011.9 mb 0.00 in0.0 mm 0.00 in0.0 mm 0.06 in1.5 mm
10:46 PM 52.9°F11.6°C 50.0°F10.0°C 90% 3.6 mph W5.8 kmh W 6.0 mph9.7 kmh 29.88 in1011.9 mb 0.00 in0.0 mm 0.00 in0.0 mm 0.06 in1.5 mm
11:00 PM 53.1°F11.7°C 50.5°F10.3°C 91% 3.0 mph NW4.8 kmh NW 5.4 mph8.7 kmh 29.87 in1011.5 mb 0.00 in0.0 mm 0.00 in0.0 mm 0.04 in1.0 mm
11:15 PM 53.8°F12.1°C 50.9°F10.5°C 90% 4.6 mph S7.4 kmh S 9.2 mph14.8 kmh 29.88 in1011.9 mb 0.00 in0.0 mm 0.00 in0.0 mm 0.04 in1.0 mm
11:30 PM 54.9°F12.7°C 52.3°F11.3°C 91% 4.3 mph SSW6.9 kmh SSW 9.2 mph14.8 kmh 29.87 in1011.5 mb 0.00 in0.0 mm 0.00 in0.0 mm 0.04 in1.0 mm
11:45 PM 55.0°F12.8°C 52.5°F11.4°C 91% 3.8 mph S6.1 kmh S 6.0 mph9.7 kmh 29.87 in1011.5 mb 0.00 in0.0 mm 0.00 in0.0 mm 0.04 in1.0 mm